ポートランド の空港の天気 - METARとTAF

ポートランド国際空港 ( KPDX / PDX ) - アメリカ オレゴン州ポートランド
飛行場実況気象(Metar)
観測時間09/25 12:53 PDT (09/25 19:53 UTC)
風向・風速西北西 3m/s
視程10km以上
天気現象
なし
気温25℃
湿度45%
気圧1018.2hPa
METARKPDX 251953Z 29005KT 10SM CLR 25/12 A3007 RMK AO2 SLP182 T02500122 $
過去の天気等 Google飛行場航空写真 Wunderground天気予報

過去48時間のMETAR

飛行場予報(TAF)
発表時間: 9/25 10:20 PDT (9/25 17:20 UTC)
予報対象時間: 25日11時 PDT ~ 26日11時 PDT
風向・風速西北西 3m/s
視程10km以上
なし
25日13時 PDT から
風向・風速北西 3m/s
視程10km以上
なし
25日22時 PDT から
風向・風速不定 2m/s
視程10km以上
なし
KPDX 251720Z 2518/2618 30005KT P6SM SKC
FM252000 31006KT P6SM SKC
FM260500 VRB03KT P6SM SKC